Time;durP1;ratioP1;P1;durP2;ratioP2;P2;SDS_P1;SDS_P2;PMS_P1;PMS_P2;Temp;Humidity;BMP_temperature;BMP_pressure;BME280_temperature;BME280_humidity;BME280_pressure;Samples;Min_cycle;Max_cycle;Signal;HPM_P1;HPM_P2
2023/01/31 00:00:29;;;;;;;16.88;2.08;;;;;;;4.01;100.00;100905.66;5206214;28;20299;-72
2023/01/31 00:02:59;;;;;;;18.15;2.33;;;;;;;4.01;100.00;100918.59;5201687;28;20030;-72
2023/01/31 00:05:30;;;;;;;21.45;2.58;;;;;;;3.99;100.00;100906.53;5200082;28;20029;-72
2023/01/31 00:08:00;;;;;;;13.68;1.63;;;;;;;3.97;100.00;100901.34;5192933;28;20029;-72
2023/01/31 00:10:30;;;;;;;22.88;2.22;;;;;;;3.92;100.00;100910.84;5201504;28;20035;-73
2023/01/31 00:13:01;;;;;;;17.52;2.30;;;;;;;3.91;100.00;100910.84;5201019;28;20029;-72
2023/01/31 00:15:31;;;;;;;13.32;1.88;;;;;;;3.91;100.00;100914.31;5196233;28;20025;-72
2023/01/31 00:18:01;;;;;;;15.55;1.92;;;;;;;3.85;100.00;100924.69;5202601;28;20651;-72
2023/01/31 00:20:32;;;;;;;18.90;2.55;;;;;;;3.95;100.00;100930.69;5203802;28;20455;-72
2023/01/31 00:23:02;;;;;;;14.80;2.15;;;;;;;4.03;100.00;100929.78;5197598;28;20075;-72
2023/01/31 00:25:32;;;;;;;13.60;2.58;;;;;;;4.08;100.00;100928.03;5208065;28;20024;-72
2023/01/31 00:28:03;;;;;;;18.63;2.30;;;;;;;4.06;100.00;100934.94;5204430;28;20479;-72
2023/01/31 00:30:33;;;;;;;19.75;2.67;;;;;;;4.06;100.00;100934.94;5201914;28;20125;-72
2023/01/31 00:33:04;;;;;;;14.13;1.98;;;;;;;4.07;100.00;100940.94;5202783;28;20041;-72
2023/01/31 00:35:37;;;;;;;13.70;2.08;;;;;;;4.07;100.00;100943.53;5200576;28;20117;-72
2023/01/31 00:38:07;;;;;;;19.65;2.83;;;;;;;4.01;100.00;100947.03;5199803;28;20091;-72
2023/01/31 00:40:38;;;;;;;17.55;2.38;;;;;;;3.98;100.00;100953.94;5199499;28;20029;-72
2023/01/31 00:43:08;;;;;;;15.93;2.40;;;;;;;4.01;100.00;100956.50;5201012;28;20017;-72
2023/01/31 00:45:38;;;;;;;20.88;3.90;;;;;;;3.97;100.00;100950.47;5202013;28;20029;-72
2023/01/31 00:48:08;;;;;;;21.83;2.78;;;;;;;3.90;100.00;100951.38;5200928;28;20100;-72
2023/01/31 00:50:39;;;;;;;21.33;3.03;;;;;;;3.88;100.00;100949.63;5201612;28;20033;-72
2023/01/31 00:53:09;;;;;;;19.02;3.03;;;;;;;3.87;100.00;100953.09;5201720;28;20345;-73
2023/01/31 00:55:40;;;;;;;20.52;3.40;;;;;;;3.89;100.00;100959.09;5200926;28;20315;-72
2023/01/31 00:58:10;;;;;;;23.60;2.75;;;;;;;3.86;100.00;100941.91;5202395;28;20112;-72
2023/01/31 01:00:40;;;;;;;26.58;2.78;;;;;;;3.83;100.00;100956.56;5201576;28;20021;-73
2023/01/31 01:03:10;;;;;;;18.58;2.17;;;;;;;3.77;100.00;100967.75;5191439;28;20363;-72
2023/01/31 01:05:41;;;;;;;17.30;3.10;;;;;;;3.73;100.00;100967.75;5192637;28;20037;-72
2023/01/31 01:08:11;;;;;;;21.88;2.95;;;;;;;3.78;100.00;100959.13;5197552;28;20263;-73
2023/01/31 01:10:41;;;;;;;17.75;3.22;;;;;;;3.77;100.00;100961.75;5199860;28;20112;-74
2023/01/31 01:13:12;;;;;;;20.58;3.25;;;;;;;3.72;100.00;100963.44;5200116;28;20056;-72
2023/01/31 01:15:42;;;;;;;18.52;3.20;;;;;;;3.69;100.00;100961.75;5201279;28;20033;-72
2023/01/31 01:18:12;;;;;;;22.00;3.45;;;;;;;3.71;100.00;100960.03;5201293;28;20025;-73
2023/01/31 01:20:43;;;;;;;18.10;2.88;;;;;;;3.81;100.00;100961.72;5200543;28;20372;-72
2023/01/31 01:23:13;;;;;;;28.90;3.15;;;;;;;3.83;100.00;100967.78;5201751;28;20025;-72
2023/01/31 01:25:44;;;;;;;18.50;3.03;;;;;;;3.82;100.00;100971.19;5200976;28;20052;-73
2023/01/31 01:28:14;;;;;;;27.42;3.30;;;;;;;3.80;100.00;100972.91;5195761;28;20061;-72
2023/01/31 01:30:44;;;;;;;29.05;3.30;;;;;;;3.86;100.00;100993.59;5201916;28;20033;-72
2023/01/31 01:33:15;;;;;;;19.63;2.70;;;;;;;3.89;100.00;100996.19;5201547;28;20069;-73
2023/01/31 01:35:45;;;;;;;23.83;3.13;;;;;;;3.90;100.00;100989.25;5201281;28;20025;-72
2023/01/31 01:38:15;;;;;;;18.23;2.53;;;;;;;4.05;100.00;100990.09;5199832;28;20304;-72
2023/01/31 01:40:45;;;;;;;18.50;2.83;;;;;;;4.04;100.00;100984.94;5200786;28;20101;-72
2023/01/31 01:43:16;;;;;;;26.10;2.97;;;;;;;4.02;100.00;100986.66;5201082;28;20498;-72
2023/01/31 01:45:47;;;;;;;19.83;2.42;;;;;;;4.09;100.00;100996.97;5201030;28;20029;-72
2023/01/31 01:48:17;;;;;;;25.13;3.03;;;;;;;4.21;100.00;100996.97;5198351;28;20482;-72
2023/01/31 01:50:48;;;;;;;22.13;2.30;;;;;;;4.21;100.00;101004.72;5201113;28;20025;-73
2023/01/31 01:53:26;;;;;;;21.42;2.50;;;;;;;4.24;100.00;101001.22;5200822;28;20758;-72
2023/01/31 01:56:02;;;;;;;25.05;2.80;;;;;;;4.21;100.00;101002.13;5199807;28;20033;-72
2023/01/31 01:58:41;;;;;;;27.50;2.75;;;;;;;4.14;100.00;101015.91;5197000;28;20352;-72
2023/01/31 02:01:15;;;;;;;18.50;2.28;;;;;;;4.25;100.00;101021.94;5199537;28;20118;-73
2023/01/31 02:03:48;;;;;;;17.90;2.58;;;;;;;4.28;100.00;101028.84;5199058;28;20034;-73
2023/01/31 02:06:19;;;;;;;18.02;2.08;;;;;;;4.33;100.00;101027.94;5200426;28;20056;-72
2023/01/31 02:08:50;;;;;;;16.92;2.13;;;;;;;4.29;100.00;101036.56;5200205;28;20020;-72
2023/01/31 02:11:23;;;;;;;17.02;2.15;;;;;;;4.25;100.00;101029.69;5199380;28;20021;-72
2023/01/31 02:14:00;;;;;;;16.38;2.35;;;;;;;4.25;100.00;101034.88;5198812;28;20589;-72
2023/01/31 02:16:30;;;;;;;25.38;3.00;;;;;;;4.20;100.00;101028.84;5194659;28;20021;-72
2023/01/31 02:19:03;;;;;;;13.70;2.08;;;;;;;4.26;100.00;101038.34;5199985;28;20414;-71
2023/01/31 02:21:55;;;;;;;22.30;2.40;;;;;;;4.28;100.00;101054.72;5200525;28;20056;-72
2023/01/31 02:25:07;;;;;;;21.67;2.55;;;;;;;4.37;100.00;101050.38;5198116;28;20057;-72
2023/01/31 02:27:55;;;;;;;18.77;2.70;;;;;;;4.38;100.00;101046.03;5197264;28;20379;-73
2023/01/31 02:31:00;;;;;;;16.30;2.22;;;;;;;4.31;100.00;101046.94;5200120;28;20403;-72
2023/01/31 02:33:42;;;;;;;16.77;2.28;;;;;;;4.30;100.00;101034.88;5194762;28;20072;-72
2023/01/31 02:37:10;;;;;;;22.45;2.70;;;;;;;4.33;100.00;101033.09;5198523;28;20498;-72
2023/01/31 02:39:45;;;;;;;24.80;2.88;;;;;;;4.26;100.00;101035.75;5185388;28;20298;-71
2023/01/31 02:42:37;;;;;;;18.70;2.75;;;;;;;4.15;100.00;101032.31;5200559;28;20558;-72
2023/01/31 02:45:34;;;;;;;18.10;2.53;;;;;;;4.08;100.00;101030.59;5195314;28;20163;-72
2023/01/31 02:48:35;;;;;;;21.67;2.83;;;;;;;4.04;100.00;101034.94;5199828;28;20090;-72
2023/01/31 02:51:18;;;;;;;21.25;2.30;;;;;;;4.04;100.00;101029.75;5195560;28;20091;-72
2023/01/31 02:53:58;;;;;;;23.83;3.13;;;;;;;4.01;100.00;101029.78;5188042;28;20037;-70
2023/01/31 02:56:32;;;;;;;22.52;3.75;;;;;;;3.97;100.00;101038.38;5194714;28;20057;-72
2023/01/31 02:59:07;;;;;;;14.77;2.33;;;;;;;3.91;100.00;101046.16;5186286;28;20624;-72
2023/01/31 03:01:43;;;;;;;24.05;2.88;;;;;;;3.93;100.00;101044.41;5197119;28;20037;-73
2023/01/31 03:04:13;;;;;;;24.15;2.95;;;;;;;3.91;100.00;101061.66;5195847;28;20026;-71
2023/01/31 03:06:53;;;;;;;21.42;2.60;;;;;;;3.93;100.00;101061.66;5199594;28;20076;-72
2023/01/31 03:09:38;;;;;;;21.40;2.78;;;;;;;3.82;100.00;101060.81;5199572;28;20483;-73
2023/01/31 03:12:32;;;;;;;22.05;2.90;;;;;;;4.02;100.00;101066.81;5195577;28;20398;-72
2023/01/31 03:17:30;;;;;;;18.20;2.42;;;;;;;4.01;100.00;101065.97;5195781;28;20029;-71
2023/01/31 03:18:27;;;;;;;21.17;3.00;;;;;;;3.96;100.00;101059.06;5198206;28;20026;-71
2023/01/31 03:21:15;;;;;;;23.15;3.40;;;;;;;3.95;100.00;101054.78;5192608;28;20025;-72
2023/01/31 03:23:50;;;;;;;24.20;2.92;;;;;;;4.02;100.00;101057.34;5196605;28;20063;-72
2023/01/31 03:26:21;;;;;;;;;;;;;;;4.00;100.00;101053.03;5197288;28;20113;-72
2023/01/31 03:28:56;;;;;;;17.88;2.55;;;;;;;3.91;100.00;101058.19;5198722;28;20035;-72
2023/01/31 03:31:34;;;;;;;18.42;2.65;;;;;;;3.96;100.00;101051.31;5199551;28;20021;-72
2023/01/31 03:34:08;;;;;;;14.93;2.60;;;;;;;4.01;100.00;101045.28;5196355;28;20538;-72
2023/01/31 03:37:10;;;;;;;18.27;2.10;;;;;;;3.96;100.00;101044.41;5195664;28;20025;-72
2023/01/31 03:40:16;;;;;;;20.08;2.45;;;;;;;4.05;100.00;101051.28;5196836;28;20030;-72
2023/01/31 03:43:00;;;;;;;15.27;2.03;;;;;;;4.07;100.00;101046.97;5198297;28;20080;-72
2023/01/31 03:45:42;;;;;;;14.57;2.30;;;;;;;4.11;100.00;101046.13;5194149;28;20087;-73
2023/01/31 03:48:16;;;;;;;15.05;2.03;;;;;;;4.15;100.00;101038.31;5198494;28;20018;-72
2023/01/31 03:50:57;;;;;;;22.75;2.38;;;;;;;4.12;100.00;101037.50;5203444;28;20028;-73
2023/01/31 03:53:40;;;;;;;19.65;2.80;;;;;;;4.14;100.00;101041.78;5195065;28;20030;-71
2023/01/31 03:56:25;;;;;;;17.65;2.75;;;;;;;4.18;100.00;101053.00;5194640;28;20438;-72
2023/01/31 03:59:01;;;;;;;20.85;2.28;;;;;;;4.19;100.00;101050.41;5198730;28;20079;-72
2023/01/31 04:01:35;;;;;;;16.63;2.15;;;;;;;4.10;100.00;101044.41;5194565;28;20064;-72
2023/01/31 04:04:39;;;;;;;15.60;2.35;;;;;;;4.10;100.00;101045.25;5202958;28;20022;-71
2023/01/31 04:07:10;;;;;;;22.52;2.67;;;;;;;4.08;100.00;101048.69;5201279;28;20587;-71
2023/01/31 04:09:40;;;;;;;18.63;2.83;;;;;;;4.08;100.00;101036.63;5201478;28;20041;-71
2023/01/31 04:12:13;;;;;;;18.63;2.60;;;;;;;4.01;100.00;101032.34;5203858;28;20025;-72
2023/01/31 04:14:44;;;;;;;20.23;3.00;;;;;;;3.93;100.00;101031.50;5202307;28;20021;-71
2023/01/31 04:17:14;;;;;;;23.80;2.72;;;;;;;3.96;100.00;101040.97;5199396;28;20087;-72
2023/01/31 04:19:44;;;;;;;20.27;3.03;;;;;;;3.96;100.00;101038.41;5203269;28;20029;-72
2023/01/31 04:22:15;;;;;;;25.35;3.03;;;;;;;3.92;100.00;101036.69;5203250;28;20029;-72
2023/01/31 04:24:45;;;;;;;23.30;2.55;;;;;;;3.78;100.00;101023.75;5201065;28;20522;-72
2023/01/31 04:27:15;;;;;;;19.77;2.08;;;;;;;3.84;100.00;101035.81;5201706;28;20037;-72
2023/01/31 04:29:45;;;;;;;21.63;3.22;;;;;;;3.76;100.00;101033.25;5202967;28;20112;-72
2023/01/31 04:32:16;;;;;;;25.23;3.03;;;;;;;3.80;100.00;101034.09;5201578;28;20037;-72
2023/01/31 04:34:46;;;;;;;21.48;3.15;;;;;;;3.72;100.00;101039.28;5202430;28;20479;-73
2023/01/31 04:37:16;;;;;;;23.85;2.83;;;;;;;3.68;100.00;101032.41;5199700;28;20105;-72
2023/01/31 04:39:47;;;;;;;28.00;3.33;;;;;;;3.76;100.00;101043.56;5211315;28;20394;-72
2023/01/31 04:42:17;;;;;;;33.13;2.80;;;;;;;3.73;100.00;101046.16;5208136;28;20029;-70
2023/01/31 04:44:48;;;;;;;14.10;2.65;;;;;;;3.68;100.00;101042.72;5205250;28;20053;-72
2023/01/31 04:47:18;;;;;;;29.50;2.50;;;;;;;3.64;100.00;101038.41;5200314;28;20093;-72
2023/01/31 04:49:48;;;;;;;19.92;3.00;;;;;;;3.70;100.00;101047.88;5199720;28;20036;-72
2023/01/31 04:52:18;;;;;;;16.98;2.90;;;;;;;3.79;100.00;101042.72;5201367;28;20044;-72
2023/01/31 04:54:49;;;;;;;18.77;2.70;;;;;;;3.91;100.00;101042.69;5201381;28;20021;-72
2023/01/31 04:57:19;;;;;;;18.83;2.55;;;;;;;3.83;100.00;101047.91;5201491;28;20100;-72
2023/01/31 04:59:50;;;;;;;18.13;2.50;;;;;;;3.88;100.00;101048.75;5200233;28;20020;-73
2023/01/31 05:02:22;;;;;;;17.05;2.80;;;;;;;4.02;100.00;101049.59;5202205;28;20413;-72
2023/01/31 05:04:52;;;;;;;23.17;3.13;;;;;;;3.96;100.00;101051.31;5201681;28;20057;-72
2023/01/31 05:07:22;;;;;;;16.05;2.60;;;;;;;3.98;100.00;101063.34;5200491;28;20060;-72
2023/01/31 05:09:53;;;;;;;18.65;2.85;;;;;;;3.93;100.00;101049.59;5202339;28;20507;-72
2023/01/31 05:12:23;;;;;;;24.38;3.22;;;;;;;3.97;100.00;101053.88;5200514;28;20372;-71
2023/01/31 05:14:53;;;;;;;19.58;2.70;;;;;;;3.94;100.00;101059.06;5198494;28;20118;-72
2023/01/31 05:17:25;;;;;;;24.17;2.75;;;;;;;3.93;100.00;101057.34;5200641;28;20076;-72
2023/01/31 05:19:56;;;;;;;19.70;2.67;;;;;;;3.91;100.00;101055.63;5201716;28;20268;-72
2023/01/31 05:22:26;;;;;;;22.45;2.70;;;;;;;3.82;100.00;101043.56;5202255;28;20478;-72
2023/01/31 05:24:56;;;;;;;22.45;3.38;;;;;;;3.83;100.00;101045.31;5199802;28;20026;-72
2023/01/31 05:27:26;;;;;;;17.25;2.28;;;;;;;3.84;100.00;101044.44;5200437;28;20132;-72
2023/01/31 05:29:57;;;;;;;20.88;2.63;;;;;;;3.77;100.00;101049.63;5204121;28;20368;-72
2023/01/31 05:32:27;;;;;;;21.50;2.72;;;;;;;3.75;100.00;101047.03;5201564;28;20033;-72
2023/01/31 05:34:57;;;;;;;24.98;2.70;;;;;;;3.81;100.00;101053.91;5201250;28;20024;-72
2023/01/31 05:37:27;;;;;;;21.85;2.75;;;;;;;3.86;100.00;101055.63;5200486;28;20487;-72
2023/01/31 05:39:58;;;;;;;21.08;2.80;;;;;;;3.77;100.00;101062.53;5196116;28;20033;-72
2023/01/31 05:42:28;;;;;;;23.30;3.10;;;;;;;3.77;100.00;101060.81;5201586;28;20033;-72
2023/01/31 05:44:58;;;;;;;21.02;2.80;;;;;;;3.74;100.00;101050.47;5200061;28;20497;-72
2023/01/31 05:47:29;;;;;;;25.25;2.85;;;;;;;3.74;100.00;101059.94;5200958;28;20025;-72
2023/01/31 05:49:59;;;;;;;16.58;2.58;;;;;;;3.86;100.00;101059.94;5199928;28;20037;-72
2023/01/31 05:52:29;;;;;;;16.95;2.45;;;;;;;3.85;100.00;101060.81;5200689;28;20450;-72
2023/01/31 05:55:00;;;;;;;19.80;2.90;;;;;;;3.93;100.00;101059.94;5200061;28;20082;-72
2023/01/31 05:57:30;;;;;;;27.30;3.30;;;;;;;3.90;100.00;101059.94;5199318;28;20083;-72
2023/01/31 06:00:01;;;;;;;16.73;2.40;;;;;;;3.84;100.00;101066.84;5197517;28;20556;-73
2023/01/31 06:02:32;;;;;;;29.33;5.20;;;;;;;3.93;100.00;101057.34;5201428;28;20382;-72
2023/01/31 06:05:02;;;;;;;24.20;3.55;;;;;;;3.89;100.00;101063.38;5200429;28;20387;-72
2023/01/31 06:07:32;;;;;;;22.63;3.10;;;;;;;3.90;100.00;101065.09;5199761;28;20276;-73
2023/01/31 06:10:05;;;;;;;19.40;3.08;;;;;;;3.84;100.00;101072.88;5208312;28;20025;-72
2023/01/31 06:12:35;;;;;;;27.02;3.03;;;;;;;3.85;100.00;101071.13;5200397;28;20509;-72
2023/01/31 06:15:15;;;;;;;23.65;3.53;;;;;;;3.87;100.00;101067.69;5200097;28;20029;-71
2023/01/31 06:17:45;;;;;;;25.92;3.40;;;;;;;3.95;100.00;101065.97;5199048;28;20030;-72
2023/01/31 06:20:16;;;;;;;23.88;3.03;;;;;;;3.92;100.00;101054.78;5200506;28;20032;-72
2023/01/31 06:22:46;;;;;;;15.55;2.72;;;;;;;3.94;100.00;101064.22;5200934;28;20029;-73
2023/01/31 06:25:17;;;;;;;18.95;2.85;;;;;;;3.91;100.00;101059.06;5197612;28;21429;-73
2023/01/31 06:27:48;;;;;;;19.15;2.90;;;;;;;3.91;100.00;101055.63;5196411;28;20061;-72
2023/01/31 06:30:18;;;;;;;21.88;2.70;;;;;;;4.01;100.00;101055.63;5197324;28;20395;-72
2023/01/31 06:32:48;;;;;;;24.75;4.43;;;;;;;4.07;100.00;101053.03;5199405;28;20066;-73
2023/01/31 06:35:19;;;;;;;20.80;3.80;;;;;;;4.03;100.00;101051.31;5198081;28;20029;-72
2023/01/31 06:37:49;;;;;;;23.90;2.63;;;;;;;3.94;100.00;101046.13;5195996;28;20169;-72
2023/01/31 06:40:19;;;;;;;19.55;2.83;;;;;;;3.94;100.00;101038.38;5197189;28;20026;-73
2023/01/31 06:42:49;;;;;;;19.92;2.50;;;;;;;4.10;100.00;101031.47;5198918;28;20505;-72
2023/01/31 06:45:20;;;;;;;20.75;2.78;;;;;;;4.00;100.00;101033.22;5198576;28;20503;-73
2023/01/31 06:47:50;;;;;;;23.80;4.32;;;;;;;4.00;100.00;101025.47;5198589;28;20025;-73
2023/01/31 06:50:20;;;;;;;17.90;3.35;;;;;;;4.07;100.00;101023.69;5199997;28;20449;-72
2023/01/31 06:52:51;;;;;;;24.52;5.53;;;;;;;4.08;100.00;101026.28;5199706;28;20044;-72
2023/01/31 06:55:21;;;;;;;25.58;5.25;;;;;;;4.08;100.00;101030.59;5197730;28;20029;-73
2023/01/31 06:57:51;;;;;;;16.98;2.85;;;;;;;4.05;100.00;101009.91;5197693;28;20029;-72
2023/01/31 07:00:23;;;;;;;18.35;2.72;;;;;;;4.13;100.00;100997.84;5199521;28;20505;-73
2023/01/31 07:02:54;;;;;;;16.17;2.90;;;;;;;4.15;100.00;101004.72;5198477;28;20103;-72
2023/01/31 07:05:25;;;;;;;15.90;2.35;;;;;;;4.13;100.00;100998.69;5199171;28;20049;-73
2023/01/31 07:07:55;;;;;;;16.40;2.60;;;;;;;4.13;100.00;100993.50;5197498;28;20403;-73
2023/01/31 07:10:26;;;;;;;20.35;2.97;;;;;;;4.16;100.00;100998.66;5200309;28;20021;-72
2023/01/31 07:12:56;;;;;;;20.40;3.38;;;;;;;4.15;100.00;100991.78;5200714;28;20029;-72
2023/01/31 07:15:26;;;;;;;18.15;2.95;;;;;;;4.19;100.00;100990.06;5198393;28;20069;-72
2023/01/31 07:17:58;;;;;;;19.33;2.80;;;;;;;4.20;100.00;100973.66;5199713;28;20021;-74
2023/01/31 07:20:28;;;;;;;29.48;3.00;;;;;;;4.14;100.00;100974.53;5196477;28;20099;-72
2023/01/31 07:22:59;;;;;;;19.23;2.83;;;;;;;4.23;100.00;100977.13;5201151;28;20114;-72
2023/01/31 07:25:32;;;;;;;24.20;3.40;;;;;;;4.28;100.00;100972.78;5197556;28;20024;-72
2023/01/31 07:28:03;;;;;;;21.88;3.55;;;;;;;4.32;100.00;100968.47;5200516;28;20104;-72
2023/01/31 07:30:33;;;;;;;18.92;3.10;;;;;;;4.29;100.00;100968.47;5200623;28;20502;-72
2023/01/31 07:33:04;;;;;;;17.95;2.75;;;;;;;4.24;100.00;100963.31;5197552;28;20116;-72
2023/01/31 07:35:34;;;;;;;23.02;2.65;;;;;;;4.30;100.00;100950.34;5195647;28;20387;-72
2023/01/31 07:38:04;;;;;;;20.48;2.38;;;;;;;4.37;100.00;100957.22;5201417;28;20437;-73
2023/01/31 07:40:35;;;;;;;16.65;2.95;;;;;;;4.47;100.00;100953.72;5203250;28;20305;-72
2023/01/31 07:43:05;;;;;;;12.82;2.40;;;;;;;4.57;100.00;100950.22;5202286;28;20487;-71
2023/01/31 07:45:35;;;;;;;17.38;2.78;;;;;;;4.48;100.00;100944.22;5201099;28;20052;-72
2023/01/31 07:48:06;;;;;;;24.35;3.15;;;;;;;4.51;100.00;100944.22;5202383;28;20436;-72
2023/01/31 07:50:36;;;;;;;16.83;2.30;;;;;;;4.49;100.00;100936.44;5202100;28;20034;-72
2023/01/31 07:53:06;;;;;;;21.08;2.60;;;;;;;4.59;100.00;100932.94;5204618;28;20086;-73
2023/01/31 07:55:37;;;;;;;15.95;2.70;;;;;;;4.67;100.00;100936.34;5203607;28;20491;-73
2023/01/31 07:58:07;;;;;;;15.10;2.53;;;;;;;4.69;100.00;100937.22;5202389;28;20037;-72
2023/01/31 08:03:31;;;;;;;16.92;3.25;;;;;;;4.67;100.00;100915.63;5204322;28;20136;-72
2023/01/31 08:06:05;;;;;;;;;;;;;;;4.70;100.00;100897.50;5200080;28;20083;-73
2023/01/31 08:08:36;;;;;;;18.15;3.40;;;;;;;4.70;100.00;100900.09;5202090;28;19944;-72
2023/01/31 08:11:07;;;;;;;23.30;3.63;;;;;;;4.76;100.00;100894.00;5202707;28;20430;-72
2023/01/31 08:13:38;;;;;;;22.60;4.13;;;;;;;4.85;100.00;100912.94;5201941;28;20185;-72
2023/01/31 08:16:09;;;;;;;19.10;3.45;;;;;;;4.90;100.00;100915.47;5202638;28;20061;-73
2023/01/31 08:18:39;;;;;;;23.77;3.83;;;;;;;4.82;100.00;100910.34;5201875;28;20030;-73
2023/01/31 08:21:11;;;;;;;18.90;3.53;;;;;;;4.91;100.00;100912.88;5202507;28;20079;-72
2023/01/31 08:23:42;;;;;;;20.17;3.72;;;;;;;5.02;100.00;100898.13;5203769;28;20413;-72
2023/01/31 08:26:18;;;;;;;23.38;4.07;;;;;;;4.93;100.00;100902.50;5199569;28;20112;-72
2023/01/31 08:28:49;;;;;;;26.23;4.22;;;;;;;4.98;100.00;100906.78;5200759;28;20498;-72
2023/01/31 08:31:22;;;;;;;19.45;4.55;;;;;;;5.08;100.00;100900.66;5217732;28;20401;-72
2023/01/31 08:33:54;;;;;;;23.23;4.53;;;;;;;5.17;100.00;100897.13;5202404;28;20108;-73
2023/01/31 08:36:33;;;;;;;24.45;4.55;;;;;;;5.15;100.00;100884.19;5203196;28;20120;-72
2023/01/31 08:39:03;;;;;;;16.80;4.10;;;;;;;5.29;100.00;100884.09;5197558;28;20402;-72
2023/01/31 08:41:35;;;;;;;20.13;4.00;;;;;;;5.31;100.00;100879.75;5201893;28;20029;-73
2023/01/31 08:44:06;;;;;;;23.92;4.40;;;;;;;5.24;100.00;100878.06;5202578;28;20025;-73
2023/01/31 08:46:36;;;;;;;26.50;4.55;;;;;;;5.24;100.00;100868.56;5201916;28;20103;-73
2023/01/31 08:49:06;;;;;;;24.25;4.78;;;;;;;5.35;100.00;100876.25;5200927;28;20478;-73
2023/01/31 08:51:37;;;;;;;19.48;4.00;;;;;;;5.45;100.00;100876.13;5200635;28;20083;-72
2023/01/31 08:54:09;;;;;;;23.05;4.15;;;;;;;5.53;100.00;100862.22;5209362;28;20500;-72
2023/01/31 08:56:39;;;;;;;22.98;4.22;;;;;;;5.53;100.00;100861.34;5209241;28;20041;-72
2023/01/31 08:59:10;;;;;;;23.33;3.90;;;;;;;5.67;100.00;100852.56;5210494;28;20475;-73
2023/01/31 09:01:42;;;;;;;15.93;3.70;;;;;;;5.95;100.00;100860.91;5201834;28;20079;-73
2023/01/31 09:04:13;;;;;;;21.30;4.20;;;;;;;6.05;100.00;100847.78;5204863;28;20031;-72
2023/01/31 09:06:43;;;;;;;21.48;4.18;;;;;;;6.29;100.00;100847.44;5202511;28;20207;-73
2023/01/31 09:09:13;;;;;;;25.55;3.95;;;;;;;6.34;100.00;100840.47;5202878;28;20025;-73
2023/01/31 09:11:43;;;;;;;23.88;4.15;;;;;;;6.42;99.44;100830.81;5201623;28;20487;-72
2023/01/31 09:14:14;;;;;;;21.65;4.03;;;;;;;6.41;100.00;100830.88;5202472;28;20037;-72
2023/01/31 09:16:45;;;;;;;21.70;3.80;;;;;;;6.52;99.26;100834.13;5201790;28;20215;-73
2023/01/31 09:19:15;;;;;;;20.67;4.47;;;;;;;6.45;99.62;100822.16;5202022;28;20033;-72
2023/01/31 09:21:46;;;;;;;24.95;4.05;;;;;;;6.40;98.74;100808.38;5203005;28;20091;-72
2023/01/31 09:24:16;;;;;;;17.63;3.78;;;;;;;6.36;99.47;100817.94;5201850;28;20037;-72
2023/01/31 09:26:46;;;;;;;17.25;3.72;;;;;;;6.45;99.74;100832.53;5200356;28;20072;-72
2023/01/31 09:29:16;;;;;;;25.15;4.40;;;;;;;6.42;99.34;100827.38;5200618;28;20032;-72
2023/01/31 09:31:50;;;;;;;20.80;3.53;;;;;;;6.60;98.71;100812.38;5202388;28;20029;-73
2023/01/31 09:34:21;;;;;;;16.23;3.78;;;;;;;6.65;98.62;100802.78;5200047;28;20023;-73
2023/01/31 09:36:53;;;;;;;20.52;3.70;;;;;;;6.47;99.50;100786.63;5200104;28;20415;-72
2023/01/31 09:39:24;;;;;;;17.58;3.90;;;;;;;6.61;98.98;100800.25;5200353;28;20584;-72
2023/01/31 09:42:00;;;;;;;16.27;4.05;;;;;;;6.59;99.17;100802.03;5201404;28;20525;-72
2023/01/31 09:44:33;;;;;;;22.50;4.20;;;;;;;6.48;99.12;100788.34;5198310;28;20063;-72
2023/01/31 09:47:12;;;;;;;22.13;3.72;;;;;;;6.43;98.18;100797.94;5199994;28;20029;-72
2023/01/31 09:49:51;;;;;;;19.15;3.75;;;;;;;6.38;99.67;100798.00;5202670;28;20079;-72
2023/01/31 09:52:22;;;;;;;20.92;4.28;;;;;;;6.41;98.62;100804.91;5200877;28;20068;-73
2023/01/31 09:54:53;;;;;;;20.25;4.43;;;;;;;6.33;98.42;100785.97;5201750;28;20061;-72
2023/01/31 09:57:39;;;;;;;19.50;3.80;;;;;;;6.26;98.67;100786.97;5201531;28;20030;-72
2023/01/31 10:00:24;;;;;;;22.40;4.32;;;;;;;6.34;98.81;100782.50;5200335;28;20280;-72
2023/01/31 10:03:35;;;;;;;22.63;4.18;;;;;;;6.37;98.85;100774.66;5202235;28;20108;-72
2023/01/31 10:06:21;;;;;;;17.77;4.32;;;;;;;6.43;98.05;100772.84;5197081;28;20384;-72
2023/01/31 10:09:09;;;;;;;;;;;;;;;6.43;97.37;100769.41;5201653;28;20056;-72
2023/01/31 10:11:46;;;;;;;23.02;4.47;;;;;;;6.47;97.50;100779.72;5199321;28;20003;-73
2023/01/31 10:14:42;;;;;;;28.45;4.90;;;;;;;6.42;98.23;100765.09;5199776;28;20037;-72
2023/01/31 10:17:34;;;;;;;20.77;4.32;;;;;;;6.48;98.80;100752.88;5199167;28;20018;-72
2023/01/31 10:20:18;;;;;;;16.85;4.15;;;;;;;6.42;100.00;100741.72;5198585;28;20418;-70
2023/01/31 10:23:01;;;;;;;21.25;4.20;;;;;;;6.42;100.00;100742.56;5200656;28;20158;-71
2023/01/31 10:25:39;;;;;;;22.70;4.65;;;;;;;6.30;100.00;100744.50;5198175;28;20033;-72
2023/01/31 10:28:16;;;;;;;21.00;5.13;;;;;;;6.12;100.00;100757.75;5200856;28;20029;-72
2023/01/31 10:30:51;;;;;;;20.65;4.45;;;;;;;6.02;100.00;100764.81;5201066;28;20028;-73
2023/01/31 10:33:42;;;;;;;16.10;4.55;;;;;;;5.94;100.00;100758.88;5200047;28;20025;-73
2023/01/31 10:36:36;;;;;;;24.38;4.90;;;;;;;5.77;100.00;100765.16;5197723;28;20064;-72
2023/01/31 10:39:20;;;;;;;18.52;4.70;;;;;;;5.70;100.00;100769.56;5195592;28;20218;-72
2023/01/31 10:42:31;;;;;;;18.55;5.32;;;;;;;5.67;100.00;100753.16;5199896;28;20474;-71
2023/01/31 10:45:07;;;;;;;16.80;4.85;;;;;;;5.40;100.00;100743.16;5189459;28;20128;-72
2023/01/31 10:47:48;;;;;;;18.98;5.07;;;;;;;5.32;100.00;100728.59;5195416;28;20048;-72
2023/01/31 10:50:30;;;;;;;18.15;5.28;;;;;;;5.40;100.00;100732.81;5199287;28;20315;-72
2023/01/31 10:53:24;;;;;;;18.60;5.75;;;;;;;5.25;100.00;100730.41;5197294;28;20149;-72
2023/01/31 10:56:04;;;;;;;14.65;4.82;;;;;;;5.40;100.00;100722.44;5198375;28;20039;-72
2023/01/31 10:58:35;;;;;;;18.98;5.03;;;;;;;5.35;100.00;100710.41;5195310;28;20071;-72
2023/01/31 11:01:10;;;;;;;16.30;4.90;;;;;;;5.39;100.00;100712.94;5199782;28;20026;-72
2023/01/31 11:03:51;;;;;;;16.15;5.07;;;;;;;5.35;100.00;100706.06;5199905;28;20025;-72
2023/01/31 11:06:22;;;;;;;18.33;4.93;;;;;;;5.38;100.00;100691.34;5198158;28;20510;-72
2023/01/31 11:08:56;;;;;;;13.77;4.10;;;;;;;5.45;100.00;100686.94;5196103;28;20041;-72
2023/01/31 11:11:28;;;;;;;16.08;4.65;;;;;;;5.43;100.00;100670.56;5199022;28;20021;-71
2023/01/31 11:14:06;;;;;;;11.65;4.15;;;;;;;5.51;100.00;100655.75;5199253;28;20032;-72
2023/01/31 11:16:38;;;;;;;11.50;4.35;;;;;;;5.53;100.00;100654.00;5198035;28;20030;-72
2023/01/31 11:19:21;;;;;;;16.27;4.55;;;;;;;5.50;100.00;100648.88;5199525;28;20037;-72
2023/01/31 11:21:53;;;;;;;15.70;4.70;;;;;;;5.52;100.00;100647.09;5194147;28;20065;-72
2023/01/31 11:24:27;;;;;;;17.33;4.68;;;;;;;5.51;100.00;100632.44;5198333;28;20480;-72
2023/01/31 11:27:04;;;;;;;16.70;4.28;;;;;;;5.52;100.00;100627.25;5198471;28;20033;-72
2023/01/31 11:29:38;;;;;;;15.18;4.70;;;;;;;5.62;100.00;100623.66;5202349;28;20022;-72
2023/01/31 11:32:18;;;;;;;17.92;4.78;;;;;;;5.61;100.00;100611.53;5196818;28;20391;-72
2023/01/31 11:34:57;;;;;;;12.23;4.10;;;;;;;5.72;100.00;100603.63;5199550;28;20029;-71
2023/01/31 11:37:30;;;;;;;11.23;4.57;;;;;;;5.71;100.00;100597.56;5195410;28;20029;-73
2023/01/31 11:40:29;;;;;;;16.92;4.40;;;;;;;5.77;100.00;100607.00;5197272;28;20493;-72
2023/01/31 11:43:03;;;;;;;14.68;4.45;;;;;;;5.80;100.00;100597.47;5199619;28;20059;-72
2023/01/31 11:45:36;;;;;;;11.32;3.90;;;;;;;5.74;100.00;100596.66;5197925;28;20475;-73
2023/01/31 11:48:17;;;;;;;13.43;4.18;;;;;;;5.68;100.00;100597.63;5197281;28;20030;-72
2023/01/31 11:50:53;;;;;;;8.00;3.22;;;;;;;5.71;100.00;100583.75;5196843;28;20053;-72
2023/01/31 11:53:30;;;;;;;16.40;4.07;;;;;;;5.67;100.00;100574.28;5199501;28;20483;-73
2023/01/31 11:56:15;;;;;;;9.48;3.05;;;;;;;5.86;100.00;100574.03;5194446;28;20078;-73